Time;durP1;ratioP1;P1;durP2;ratioP2;P2;SDS_P1;SDS_P2;PMS_P1;PMS_P2;Temp;Humidity;BMP_temperature;BMP_pressure;BME280_temperature;BME280_humidity;BME280_pressure;Samples;Min_cycle;Max_cycle;Signal;HPM_P1;HPM_P2
2023/04/03 00:02:21;;;;;;;13.23;5.35;;;6.80;66.80;;;;;;5077405;28;20234;-62
2023/04/03 00:04:55;;;;;;;10.10;5.20;;;6.90;66.80;;;;;;5081972;28;20233;-62
2023/04/03 00:07:27;;;;;;;8.60;5.07;;;6.90;66.80;;;;;;5075555;28;20220;-61
2023/04/03 00:10:09;;;;;;;6.95;4.07;;;6.90;66.80;;;;;;5082792;28;20593;-62
2023/04/03 00:12:42;;;;;;;10.07;5.13;;;6.90;66.80;;;;;;5079746;28;20664;-63
2023/04/03 00:15:17;;;;;;;7.53;4.00;;;6.90;66.70;;;;;;5080527;28;20653;-62
2023/04/03 00:17:52;;;;;;;8.57;4.40;;;6.90;66.70;;;;;;5078823;28;20719;-63
2023/04/03 00:20:31;;;;;;;9.63;4.55;;;6.80;66.70;;;;;;5086817;28;20810;-62
2023/04/03 00:23:03;;;;;;;7.13;4.30;;;6.80;66.70;;;;;;5078604;28;20211;-62
2023/04/03 00:25:41;;;;;;;6.53;4.10;;;6.80;66.80;;;;;;5079624;28;20206;-62
2023/04/03 00:28:13;;;;;;;7.00;4.10;;;6.80;66.80;;;;;;5078913;28;20287;-62
2023/04/03 00:30:49;;;;;;;7.53;3.83;;;6.80;66.80;;;;;;5081100;28;20322;-62
2023/04/03 00:33:21;;;;;;;6.13;3.63;;;6.80;66.70;;;;;;5077992;28;20226;-64
2023/04/03 00:36:04;;;;;;;7.88;3.88;;;6.70;66.80;;;;;;5081775;28;20212;-62
2023/04/03 00:38:36;;;;;;;7.32;3.90;;;6.70;66.80;;;;;;5082603;28;20216;-61
2023/04/03 00:41:09;;;;;;;6.95;4.03;;;6.60;66.80;;;;;;5082517;28;20925;-62
2023/04/03 00:43:49;;;;;;;7.05;4.30;;;6.60;66.70;;;;;;5067158;28;20226;-62
2023/04/03 00:46:22;;;;;;;7.22;4.20;;;6.60;66.80;;;;;;5076672;28;20202;-64
2023/04/03 00:48:53;;;;;;;9.93;4.68;;;6.60;66.90;;;;;;5081419;28;20639;-62
2023/04/03 00:51:31;;;;;;;8.60;3.85;;;6.50;66.90;;;;;;5083780;28;20819;-61
2023/04/03 00:54:06;;;;;;;6.65;3.97;;;6.50;67.00;;;;;;5078180;28;20647;-64
2023/04/03 00:56:46;;;;;;;8.57;4.80;;;6.50;66.90;;;;;;5078912;28;20241;-63
2023/04/03 00:59:26;;;;;;;7.30;4.03;;;6.50;67.00;;;;;;5066016;28;20243;-65
2023/04/03 01:02:00;;;;;;;7.20;4.10;;;6.40;67.00;;;;;;5078792;28;20587;-64
2023/04/03 01:04:31;;;;;;;6.80;4.05;;;6.40;67.20;;;;;;5081578;28;20298;-64
2023/04/03 01:07:11;;;;;;;6.82;3.42;;;6.40;67.20;;;;;;5081929;28;20192;-62
2023/04/03 01:09:50;;;;;;;5.95;4.35;;;6.40;67.20;;;;;;5084712;28;20987;-62
2023/04/03 01:12:33;;;;;;;6.63;3.88;;;6.30;67.10;;;;;;5071411;28;20213;-62
2023/04/03 01:15:09;;;;;;;7.60;4.10;;;6.30;67.10;;;;;;5077823;28;20200;-62
2023/04/03 01:17:48;;;;;;;8.30;4.50;;;6.30;67.30;;;;;;5077778;28;20206;-64
2023/04/03 01:20:58;;;;;;;7.05;3.92;;;6.30;67.30;;;;;;5082839;28;20291;-62
2023/04/03 01:23:54;;;;;;;7.43;4.28;;;6.20;67.30;;;;;;5083230;28;20291;-62
2023/04/03 01:26:30;;;;;;;9.02;5.45;;;6.20;67.10;;;;;;5074611;28;20219;-62
2023/04/03 01:29:04;;;;;;;11.63;6.32;;;6.10;67.10;;;;;;5087785;28;20202;-63
2023/04/03 01:31:49;;;;;;;8.80;5.93;;;6.00;67.10;;;;;;5079844;28;20322;-63
2023/04/03 01:34:18;;;;;;;9.45;5.60;;;5.90;67.30;;;;;;5070300;28;20218;-62
2023/04/03 01:36:55;;;;;;;12.45;5.97;;;5.80;67.30;;;;;;5088762;28;20216;-63
2023/04/03 01:39:35;;;;;;;12.23;5.38;;;5.80;67.50;;;;;;5070321;28;20295;-63
2023/04/03 01:42:16;;;;;;;8.73;5.28;;;5.80;67.70;;;;;;5071913;28;20616;-62
2023/04/03 01:44:51;;;;;;;8.52;5.53;;;5.80;67.70;;;;;;5074520;28;20201;-61
2023/04/03 01:47:25;;;;;;;12.02;8.30;;;5.70;67.60;;;;;;5083984;28;21330;-63
2023/04/03 01:49:58;;;;;;;10.65;6.63;;;5.70;67.70;;;;;;5065269;28;20227;-62
2023/04/03 01:52:37;;;;;;;13.52;8.27;;;5.70;67.70;;;;;;5081854;28;20223;-62
2023/04/03 01:55:19;;;;;;;9.93;7.25;;;5.70;67.90;;;;;;5070427;28;20199;-62
2023/04/03 01:57:52;;;;;;;10.32;6.75;;;5.70;68.00;;;;;;5082722;28;20202;-63
2023/04/03 02:00:26;;;;;;;10.85;6.70;;;5.80;68.00;;;;;;5061356;28;20293;-62
2023/04/03 02:03:06;;;;;;;8.43;6.22;;;5.80;68.10;;;;;;5079655;28;20217;-62
2023/04/03 02:05:39;;;;;;;12.43;7.00;;;5.90;68.20;;;;;;5064604;28;20219;-62
2023/04/03 02:08:21;;;;;;;9.45;6.57;;;5.90;68.20;;;;;;5065982;28;20200;-62
2023/04/03 02:10:52;;;;;;;8.45;5.72;;;5.90;68.10;;;;;;5077663;28;20397;-63
2023/04/03 02:13:21;;;;;;;8.63;5.35;;;6.00;68.20;;;;;;5063556;28;20222;-63
2023/04/03 02:15:51;;;;;;;10.90;6.28;;;6.00;68.20;;;;;;5083510;28;20203;-63
2023/04/03 02:18:24;;;;;;;9.75;6.35;;;6.00;68.10;;;;;;5077614;28;20300;-62
2023/04/03 02:21:04;;;;;;;10.48;6.53;;;6.00;68.20;;;;;;5084765;28;20206;-63
2023/04/03 02:23:36;;;;;;;11.23;6.95;;;6.00;68.20;;;;;;5068162;28;20295;-63
2023/04/03 02:26:07;;;;;;;10.85;6.80;;;6.00;68.30;;;;;;5089453;28;20216;-62
2023/04/03 02:28:39;;;;;;;10.07;6.32;;;6.00;68.30;;;;;;5082827;28;20659;-63
2023/04/03 02:31:10;;;;;;;11.50;6.68;;;6.00;68.50;;;;;;5081382;28;20234;-62
2023/04/03 02:33:49;;;;;;;9.05;6.10;;;6.00;68.60;;;;;;5063551;28;20219;-62
2023/04/03 02:36:21;;;;;;;9.95;5.90;;;6.10;68.70;;;;;;5085380;28;20205;-63
2023/04/03 02:38:58;;;;;;;10.45;5.50;;;6.10;68.70;;;;;;5080904;28;20285;-63
2023/04/03 02:41:40;;;;;;;12.95;7.25;;;6.10;68.70;;;;;;5071634;28;20274;-62
2023/04/03 02:44:27;;;;;;;19.35;11.30;;;6.10;68.70;;;;;;5079795;28;20273;-62
2023/04/03 02:46:58;;;;;;;17.50;9.30;;;6.10;68.60;;;;;;5083826;28;20282;-63
2023/04/03 02:49:36;;;;;;;18.70;10.43;;;6.00;68.60;;;;;;5083135;28;20211;-63
2023/04/03 02:52:07;;;;;;;12.55;7.40;;;6.00;68.70;;;;;;5087069;28;20202;-62
2023/04/03 02:54:46;;;;;;;11.65;6.47;;;6.00;68.80;;;;;;5084059;28;20659;-64
2023/04/03 02:57:20;;;;;;;11.18;6.75;;;6.00;68.90;;;;;;5087327;28;20201;-63
2023/04/03 02:59:49;;;;;;;11.55;6.15;;;6.00;68.90;;;;;;5080832;28;20802;-62
2023/04/03 03:02:35;;;;;;;11.18;7.07;;;6.00;68.90;;;;;;5064113;28;20224;-63
2023/04/03 03:05:14;;;;;;;10.70;6.70;;;6.00;68.90;;;;;;5077627;28;20190;-63
2023/04/03 03:07:58;;;;;;;13.38;7.15;;;6.00;68.90;;;;;;5085703;28;20590;-62
2023/04/03 03:10:30;;;;;;;12.27;6.53;;;5.90;69.00;;;;;;5089634;28;20212;-62
2023/04/03 03:13:00;;;;;;;9.15;4.70;;;5.90;68.90;;;;;;5079686;28;20220;-62
2023/04/03 03:15:40;;;;;;;9.75;4.93;;;5.80;68.90;;;;;;5080418;28;20267;-63
2023/04/03 03:18:19;;;;;;;8.77;5.10;;;5.80;69.00;;;;;;5080030;28;20223;-62
2023/04/03 03:20:57;;;;;;;8.55;4.68;;;5.70;69.10;;;;;;5067299;28;20741;-62
2023/04/03 03:23:36;;;;;;;8.90;4.40;;;5.70;69.20;;;;;;5083050;28;20291;-62
2023/04/03 03:26:12;;;;;;;11.10;5.70;;;5.70;69.20;;;;;;5071815;28;20294;-63
2023/04/03 03:28:43;;;;;;;9.70;5.20;;;5.70;69.40;;;;;;5084556;28;20294;-62
2023/04/03 03:31:20;;;;;;;10.15;6.35;;;5.70;69.40;;;;;;5067551;28;20223;-63
2023/04/03 03:33:53;;;;;;;12.32;5.85;;;5.70;69.60;;;;;;5065950;28;20222;-63
2023/04/03 03:36:24;;;;;;;12.18;5.65;;;5.70;69.60;;;;;;5087031;28;20632;-63
2023/04/03 03:41:38;;;;;;;10.55;6.20;;;5.70;69.70;;;;;;5068274;28;20221;-62
2023/04/03 03:44:13;;;;;;;11.60;5.80;;;5.70;69.80;;;;;;5075602;28;20637;-63
2023/04/03 03:46:45;;;;;;;10.48;6.68;;;5.70;69.80;;;;;;5063403;28;20211;-62
2023/04/03 03:49:23;;;;;;;10.90;6.95;;;5.70;69.90;;;;;;5079755;28;20195;-63
2023/04/03 03:52:01;;;;;;;11.43;6.85;;;5.70;70.00;;;;;;5063081;28;20207;-62
2023/04/03 03:54:39;;;;;;;13.43;7.43;;;5.70;70.10;;;;;;5083124;28;20298;-63
2023/04/03 03:57:14;;;;;;;12.15;7.25;;;5.70;70.20;;;;;;5085723;28;20226;-62
2023/04/03 03:59:52;;;;;;;13.32;7.57;;;5.70;70.30;;;;;;5080994;28;20215;-63
2023/04/03 04:02:30;;;;;;;15.32;8.07;;;5.70;70.40;;;;;;5064209;28;20339;-63
2023/04/03 04:05:08;;;;;;;26.90;9.77;;;5.80;70.40;;;;;;5064157;28;20208;-62
2023/04/03 04:07:50;;;;;;;11.95;7.25;;;5.80;70.70;;;;;;5071376;28;20515;-63
2023/04/03 04:10:30;;;;;;;12.48;7.85;;;5.80;70.70;;;;;;5064550;28;20917;-62
2023/04/03 04:13:04;;;;;;;11.80;7.72;;;5.80;70.80;;;;;;5062531;28;20199;-63
2023/04/03 04:15:43;;;;;;;10.18;7.10;;;5.70;70.90;;;;;;5087086;28;20214;-62
2023/04/03 04:18:22;;;;;;;77.15;32.45;;;5.70;71.00;;;;;;5078631;28;20211;-63
2023/04/03 04:20:59;;;;;;;31.25;23.30;;;5.70;71.20;;;;;;5078645;28;20203;-62
2023/04/03 04:23:37;;;;;;;20.08;16.50;;;5.70;71.30;;;;;;5079474;28;20222;-63
2023/04/03 04:26:06;;;;;;;12.30;9.50;;;5.70;71.50;;;;;;5082428;28;20227;-63
2023/04/03 04:28:45;;;;;;;13.30;8.18;;;5.70;71.60;;;;;;5083534;28;20220;-63
2023/04/03 04:31:19;;;;;;;11.20;7.57;;;5.70;71.90;;;;;;5082162;28;20245;-63
2023/04/03 04:33:55;;;;;;;18.05;12.40;;;5.70;71.80;;;;;;5076976;28;20218;-63
2023/04/03 04:36:35;;;;;;;13.68;7.90;;;5.70;72.00;;;;;;5081464;28;20199;-63
2023/04/03 04:39:15;;;;;;;14.15;8.30;;;5.70;72.00;;;;;;5081567;28;20204;-63
2023/04/03 04:41:53;;;;;;;15.48;6.78;;;5.70;72.40;;;;;;5082174;28;20207;-62
2023/04/03 04:44:25;;;;;;;13.45;6.38;;;5.70;72.40;;;;;;5064139;28;20211;-63
2023/04/03 04:46:54;;;;;;;18.92;7.50;;;5.60;72.70;;;;;;5083369;28;20310;-63
2023/04/03 04:49:33;;;;;;;14.32;7.63;;;5.60;72.40;;;;;;5062559;28;20216;-63
2023/04/03 04:52:08;;;;;;;24.20;11.48;;;5.60;72.30;;;;;;5078447;28;20204;-62
2023/04/03 04:54:43;;;;;;;14.05;7.90;;;5.60;72.30;;;;;;5081607;28;20228;-62
2023/04/03 04:57:22;;;;;;;12.98;8.05;;;5.60;72.40;;;;;;5081513;28;20203;-63
2023/04/03 04:59:50;;;;;;;17.80;9.05;;;5.60;72.40;;;;;;5066795;28;20255;-63
2023/04/03 05:02:23;;;;;;;15.15;7.40;;;5.60;72.40;;;;;;5061259;28;20678;-63
2023/04/03 05:05:03;;;;;;;12.07;5.53;;;5.50;72.50;;;;;;5081538;28;20207;-63
2023/04/03 05:07:41;;;;;;;18.75;9.98;;;5.40;72.70;;;;;;5085716;28;20307;-62
2023/04/03 05:10:18;;;;;;;21.58;13.70;;;5.40;72.70;;;;;;5082385;28;20210;-62
2023/04/03 05:12:53;;;;;;;13.52;8.88;;;5.40;72.60;;;;;;5084701;28;20297;-62
2023/04/03 05:15:30;;;;;;;13.65;5.72;;;5.40;72.60;;;;;;5086029;28;20203;-62
2023/04/03 05:18:14;;;;;;;20.02;15.68;;;5.40;72.60;;;;;;5065829;28;20255;-62
2023/04/03 05:20:57;;;;;;;10.63;6.75;;;5.40;72.60;;;;;;5081964;28;20206;-62
2023/04/03 05:23:36;;;;;;;10.93;7.93;;;5.40;72.60;;;;;;5081497;28;20816;-63
2023/04/03 05:26:11;;;;;;;10.07;5.97;;;5.40;72.60;;;;;;5079826;28;20260;-63
2023/04/03 05:28:56;;;;;;;11.88;6.57;;;5.40;72.60;;;;;;5079143;28;20211;-63
2023/04/03 05:31:30;;;;;;;11.15;5.88;;;5.40;72.60;;;;;;5059111;28;20893;-62
2023/04/03 05:34:04;;;;;;;8.45;5.30;;;5.40;72.60;;;;;;5080024;28;20302;-63
2023/04/03 05:36:38;;;;;;;8.45;5.70;;;5.30;72.60;;;;;;5080993;28;20211;-63
2023/04/03 05:39:11;;;;;;;7.90;4.40;;;5.30;72.50;;;;;;5077697;28;20298;-62
2023/04/03 05:41:49;;;;;;;8.45;6.18;;;5.40;72.50;;;;;;5080122;28;20206;-62
2023/04/03 05:44:22;;;;;;;8.07;4.68;;;5.40;72.60;;;;;;5077965;28;20242;-62
2023/04/03 05:46:58;;;;;;;7.90;5.72;;;5.40;72.60;;;;;;5081309;28;20219;-63
2023/04/03 05:49:33;;;;;;;8.10;6.55;;;5.40;72.30;;;;;;5059787;28;20210;-62
2023/04/03 05:52:11;;;;;;;13.02;5.60;;;5.40;72.40;;;;;;5076681;28;20228;-62
2023/04/03 05:54:48;;;;;;;11.00;5.43;;;5.40;72.30;;;;;;5079545;28;20233;-62
2023/04/03 05:57:28;;;;;;;13.05;5.60;;;5.30;72.20;;;;;;5076887;28;20302;-62
2023/04/03 06:00:03;;;;;;;7.95;4.80;;;5.30;72.10;;;;;;5078998;28;20205;-63
2023/04/03 06:02:41;;;;;;;8.77;5.82;;;5.30;72.10;;;;;;5080796;28;20613;-63
2023/04/03 06:05:20;;;;;;;8.95;4.88;;;5.20;71.90;;;;;;5079025;28;20645;-62
2023/04/03 06:07:50;;;;;;;9.48;5.15;;;5.10;71.90;;;;;;5078185;28;20207;-62
2023/04/03 06:10:26;;;;;;;10.00;5.35;;;5.10;71.80;;;;;;5072095;28;20317;-63
2023/04/03 06:13:10;;;;;;;8.02;5.20;;;5.00;71.90;;;;;;5068156;28;20225;-63
2023/04/03 06:15:48;;;;;;;12.45;5.50;;;5.00;72.10;;;;;;5083273;28;20232;-63
2023/04/03 06:18:27;;;;;;;8.50;5.35;;;5.10;72.00;;;;;;5080897;28;20875;-62
2023/04/03 06:21:02;;;;;;;10.10;5.70;;;5.10;72.00;;;;;;5075341;28;20536;-62
2023/04/03 06:23:37;;;;;;;10.15;5.43;;;5.10;72.00;;;;;;5078070;28;20187;-62
2023/04/03 06:26:12;;;;;;;12.25;6.05;;;5.10;71.90;;;;;;5082790;28;20213;-63
2023/04/03 06:28:44;;;;;;;8.35;4.50;;;5.10;71.90;;;;;;5083865;28;20298;-63
2023/04/03 06:31:30;;;;;;;9.63;4.82;;;5.10;71.80;;;;;;5079334;28;20235;-63
2023/04/03 06:34:11;;;;;;;6.78;4.40;;;5.10;71.90;;;;;;5080225;28;20283;-63
2023/04/03 06:36:50;;;;;;;7.32;4.53;;;5.10;71.90;;;;;;5081342;28;20222;-63
2023/04/03 06:39:30;;;;;;;8.23;4.68;;;5.10;71.80;;;;;;5080974;28;20647;-62
2023/04/03 06:42:07;;;;;;;8.30;4.60;;;5.10;71.60;;;;;;5077627;28;20286;-62
2023/04/03 06:45:13;;;;;;;15.30;5.00;;;5.10;71.80;;;;;;5082955;28;20222;-62
2023/04/03 06:50:33;;;;;;;14.55;6.00;;;5.00;71.70;;;;;;5079429;28;20215;-63
2023/04/03 06:53:06;;;;;;;8.00;5.30;;;5.00;71.70;;;;;;5080380;28;20394;-63
2023/04/03 06:55:43;;;;;;;10.55;5.20;;;5.10;71.50;;;;;;5078766;28;20309;-63
2023/04/03 06:58:18;;;;;;;8.68;5.53;;;5.10;71.70;;;;;;5081668;28;20732;-62
2023/04/03 07:00:59;;;;;;;8.65;4.90;;;5.10;71.60;;;;;;5083223;28;20573;-62
2023/04/03 07:03:31;;;;;;;8.45;5.65;;;5.10;71.50;;;;;;5078510;28;20582;-63
2023/04/03 07:06:04;;;;;;;8.82;4.85;;;5.20;71.50;;;;;;5079532;28;20215;-63
2023/04/03 07:08:44;;;;;;;7.35;4.30;;;5.20;71.40;;;;;;5076308;28;20203;-62
2023/04/03 07:11:22;;;;;;;12.73;5.20;;;5.30;71.40;;;;;;5080191;28;20218;-63
2023/04/03 07:13:52;;;;;;;13.13;7.90;;;5.30;71.20;;;;;;5079972;28;20271;-63
2023/04/03 07:16:27;;;;;;;16.80;8.15;;;5.30;71.20;;;;;;5080988;28;20328;-63
2023/04/03 07:19:08;;;;;;;22.63;10.05;;;5.30;71.10;;;;;;5079064;28;20253;-62
2023/04/03 07:21:41;;;;;;;16.98;8.40;;;5.30;71.20;;;;;;5079790;28;20203;-62
2023/04/03 07:24:21;;;;;;;13.65;5.95;;;5.30;71.20;;;;;;5077782;28;20206;-62
2023/04/03 07:26:53;;;;;;;13.05;5.45;;;5.30;71.30;;;;;;5080791;28;20644;-63
2023/04/03 07:29:30;;;;;;;11.35;5.43;;;5.40;71.20;;;;;;5080627;28;20562;-63
2023/04/03 07:32:07;;;;;;;10.10;6.10;;;5.50;71.20;;;;;;5079306;28;20789;-62
2023/04/03 07:34:45;;;;;;;12.77;7.00;;;5.50;70.90;;;;;;5079142;28;20213;-62
2023/04/03 07:37:17;;;;;;;15.85;8.02;;;5.50;70.90;;;;;;5076703;28;20227;-62
2023/04/03 07:39:52;;;;;;;18.23;9.20;;;5.50;70.90;;;;;;5077611;28;20238;-63
2023/04/03 07:42:24;;;;;;;17.88;7.82;;;5.50;70.90;;;;;;5080600;28;20727;-63
2023/04/03 07:45:01;;;;;;;13.82;5.40;;;5.60;70.90;;;;;;5081092;28;20316;-63
2023/04/03 07:47:37;;;;;;;12.10;5.40;;;5.60;70.50;;;;;;5080868;28;20219;-62
2023/04/03 07:50:12;;;;;;;12.98;5.03;;;5.70;70.70;;;;;;5076795;28;20290;-63
2023/04/03 07:52:54;;;;;;;9.95;4.90;;;5.70;70.30;;;;;;5080060;28;20673;-63
2023/04/03 07:55:32;;;;;;;11.90;7.00;;;5.60;70.20;;;;;;5084112;28;20219;-63
2023/04/03 07:58:19;;;;;;;12.23;7.47;;;5.60;70.10;;;;;;5076603;28;20234;-63
2023/04/03 08:00:59;;;;;;;11.15;6.55;;;5.70;70.10;;;;;;5080013;28;20258;-63
2023/04/03 08:03:37;;;;;;;10.93;5.10;;;5.60;69.90;;;;;;5082360;28;20216;-62
2023/04/03 08:06:10;;;;;;;11.75;5.20;;;5.60;69.70;;;;;;5080054;28;20231;-63
2023/04/03 08:08:47;;;;;;;21.60;13.93;;;5.60;69.80;;;;;;5076079;28;20730;-63
2023/04/03 08:11:15;;;;;;;13.70;8.10;;;5.70;69.90;;;;;;5082525;28;20501;-63
2023/04/03 08:13:51;;;;;;;13.30;5.78;;;5.80;69.90;;;;;;5081872;28;20208;-63
2023/04/03 08:16:29;;;;;;;12.60;5.75;;;5.90;69.90;;;;;;5082222;28;20660;-63
2023/04/03 08:19:12;;;;;;;12.43;5.78;;;5.90;69.60;;;;;;5080376;28;20299;-63
2023/04/03 08:22:17;;;;;;;8.55;5.32;;;6.00;69.50;;;;;;5042927;28;20306;-63
2023/04/03 08:24:49;;;;;;;9.45;5.20;;;5.90;69.30;;;;;;5040997;28;20611;-62
2023/04/03 08:27:32;;;;;;;10.73;4.80;;;6.00;69.50;;;;;;5037465;28;20345;-63
2023/04/03 08:30:10;;;;;;;8.20;4.63;;;6.20;69.70;;;;;;5037658;28;20209;-62
2023/04/03 08:32:46;;;;;;;7.55;4.50;;;6.20;69.00;;;;;;5039308;28;20288;-62
2023/04/03 08:35:24;;;;;;;11.95;5.90;;;6.20;68.70;;;;;;5039329;28;20212;-63
2023/04/03 08:38:02;;;;;;;12.93;5.95;;;6.20;68.70;;;;;;5037393;28;20646;-63
2023/04/03 08:40:42;;;;;;;7.40;4.78;;;6.10;68.60;;;;;;5061831;28;20274;-62
2023/04/03 08:43:38;;;;;;;10.70;5.30;;;6.20;68.60;;;;;;5077583;28;20908;-63
2023/04/03 08:46:15;;;;;;;20.15;9.18;;;6.20;68.50;;;;;;5082258;28;20571;-63
2023/04/03 08:48:54;;;;;;;15.48;7.75;;;6.30;68.50;;;;;;5081018;28;20552;-64
2023/04/03 08:51:37;;;;;;;10.95;6.30;;;6.20;68.50;;;;;;5080490;28;20207;-62
2023/04/03 08:54:25;;;;;;;10.93;6.03;;;6.30;68.40;;;;;;5081470;28;20261;-63
2023/04/03 08:56:59;;;;;;;7.57;4.22;;;6.30;68.20;;;;;;5077007;28;20223;-63
2023/04/03 08:59:36;;;;;;;9.13;5.10;;;6.30;68.10;;;;;;5083662;28;20232;-62
2023/04/03 09:02:28;;;;;;;9.23;5.80;;;6.30;67.70;;;;;;5078871;28;20297;-63
2023/04/03 09:05:13;;;;;;;8.50;4.50;;;6.30;67.90;;;;;;5082570;28;20215;-62
2023/04/03 09:07:57;;;;;;;9.27;5.30;;;6.30;68.10;;;;;;5081242;28;20216;-62
2023/04/03 09:10:32;;;;;;;11.05;5.35;;;6.40;68.20;;;;;;5076590;28;20626;-62
2023/04/03 09:13:19;;;;;;;9.40;4.88;;;6.50;68.20;;;;;;5079230;28;20514;-63
2023/04/03 09:15:58;;;;;;;9.68;5.20;;;6.50;67.80;;;;;;5080732;28;20222;-63
2023/04/03 09:18:46;;;;;;;9.98;5.03;;;6.60;67.90;;;;;;5085028;28;20272;-62
2023/04/03 09:21:25;;;;;;;10.35;5.45;;;6.70;67.80;;;;;;5080465;28;20240;-62
2023/04/03 09:24:05;;;;;;;11.85;5.50;;;6.80;67.50;;;;;;5082169;28;20257;-63
2023/04/03 09:26:44;;;;;;;9.50;5.82;;;6.80;66.80;;;;;;5063445;28;20286;-63
2023/04/03 09:29:22;;;;;;;10.35;4.53;;;6.80;66.60;;;;;;5079783;28;20654;-63
2023/04/03 09:31:57;;;;;;;12.27;6.20;;;6.80;66.30;;;;;;5080572;28;20242;-62
2023/04/03 09:34:36;;;;;;;14.10;5.60;;;6.80;66.50;;;;;;5080829;28;20301;-63
2023/04/03 09:37:08;;;;;;;16.33;6.93;;;6.80;66.70;;;;;;5078058;28;20224;-63
2023/04/03 09:39:57;;;;;;;12.52;6.45;;;6.90;66.70;;;;;;5078591;28;20216;-63
2023/04/03 09:42:36;;;;;;;12.50;6.57;;;7.00;66.30;;;;;;5078013;28;20532;-63
2023/04/03 09:45:07;;;;;;;11.70;7.05;;;7.00;66.00;;;;;;5080134;28;20516;-63
2023/04/03 09:47:44;;;;;;;12.18;5.45;;;7.10;66.00;;;;;;5082085;28;20209;-63
2023/04/03 09:50:24;;;;;;;7.15;4.57;;;7.10;65.90;;;;;;5082434;28;20211;-63
2023/04/03 09:53:00;;;;;;;7.97;4.95;;;7.20;65.60;;;;;;5083771;28;20206;-63
2023/04/03 09:55:47;;;;;;;7.18;3.40;;;7.20;65.30;;;;;;5065294;28;20209;-63
2023/04/03 09:58:33;;;;;;;10.20;4.10;;;7.20;64.80;;;;;;5078701;28;20253;-63
2023/04/03 10:02:11;;;;;;;11.77;4.50;;;7.10;64.70;;;;;;5081146;28;20315;-63
2023/04/03 10:04:54;;;;;;;7.70;4.40;;;7.10;64.50;;;;;;5085886;28;20233;-63
2023/04/03 10:07:47;;;;;;;9.07;4.05;;;7.10;65.00;;;;;;5081683;28;20194;-63
2023/04/03 10:11:07;;;;;;;9.13;3.95;;;7.10;64.90;;;;;;5062787;28;20240;-63
2023/04/03 10:13:59;;;;;;;7.72;4.45;;;7.30;64.70;;;;;;5080843;28;20203;-64
2023/04/03 10:16:52;;;;;;;8.90;4.13;;;7.30;64.30;;;;;;5080320;28;20213;-63
2023/04/03 10:20:17;;;;;;;7.63;3.90;;;7.40;64.20;;;;;;5082749;28;20631;-63
2023/04/03 10:23:04;;;;;;;9.95;4.80;;;7.30;64.10;;;;;;5062244;28;20308;-63
2023/04/03 10:25:48;;;;;;;9.30;5.22;;;7.40;64.30;;;;;;5084097;28;20198;-62
2023/04/03 10:28:44;;;;;;;9.98;4.40;;;7.40;63.90;;;;;;5077871;28;20283;-63
2023/04/03 10:31:27;;;;;;;10.80;4.45;;;7.30;63.10;;;;;;5081109;28;20236;-62
2023/04/03 10:34:23;;;;;;;7.78;3.70;;;7.20;62.70;;;;;;5064771;28;20198;-63
2023/04/03 10:37:24;;;;;;;6.22;3.42;;;7.30;63.20;;;;;;5085380;28;20218;-63
2023/04/03 10:40:02;;;;;;;6.65;3.42;;;7.30;62.70;;;;;;5085730;28;20304;-63
2023/04/03 10:43:05;;;;;;;8.73;3.40;;;7.40;62.60;;;;;;5081249;28;20206;-63
2023/04/03 10:45:54;;;;;;;6.60;3.25;;;7.50;61.90;;;;;;5066458;28;20650;-63
2023/04/03 10:48:46;;;;;;;13.60;5.18;;;7.50;61.60;;;;;;5081107;28;20194;-63
2023/04/03 10:51:31;;;;;;;12.60;4.85;;;7.40;61.30;;;;;;5078053;28;20224;-63
2023/04/03 10:54:13;;;;;;;9.70;3.33;;;7.30;61.20;;;;;;5086593;28;20262;-63
2023/04/03 10:56:57;;;;;;;8.80;3.78;;;7.20;60.80;;;;;;5084394;28;20539;-63
2023/04/03 10:59:51;;;;;;;5.80;2.92;;;7.20;61.00;;;;;;5078920;28;20579;-63
2023/04/03 11:02:31;;;;;;;7.00;3.90;;;7.10;60.40;;;;;;5079488;28;20571;-63
2023/04/03 11:05:09;;;;;;;7.13;3.55;;;7.20;61.40;;;;;;5083086;28;20550;-63
2023/04/03 11:07:49;;;;;;;10.30;3.10;;;7.30;61.00;;;;;;5080703;28;20213;-63
2023/04/03 11:10:26;;;;;;;8.45;3.05;;;7.40;60.70;;;;;;5082047;28;20210;-63
2023/04/03 11:13:15;;;;;;;6.07;3.30;;;7.50;60.20;;;;;;5082591;28;20204;-63
2023/04/03 11:15:55;;;;;;;5.60;2.70;;;7.60;59.20;;;;;;5080520;28;20664;-63
2023/04/03 11:18:47;;;;;;;6.00;2.55;;;7.60;59.00;;;;;;5084159;28;20224;-63
2023/04/03 11:21:26;;;;;;;5.72;3.00;;;7.50;57.70;;;;;;5082513;28;20641;-63
2023/04/03 11:24:01;;;;;;;6.80;3.70;;;7.50;58.40;;;;;;5081495;28;20291;-63
2023/04/03 11:26:42;;;;;;;7.90;3.38;;;7.60;58.90;;;;;;5077489;28;20252;-64
2023/04/03 11:29:26;;;;;;;13.38;4.70;;;7.70;58.30;;;;;;5079322;28;20204;-63
2023/04/03 11:32:42;;;;;;;5.80;2.90;;;7.70;58.50;;;;;;5076015;28;20226;-63
2023/04/03 11:35:18;;;;;;;5.75;2.80;;;7.70;57.80;;;;;;5079211;28;20299;-63
2023/04/03 11:37:52;;;;;;;5.47;2.90;;;7.70;58.10;;;;;;5080709;28;20257;-63
2023/04/03 11:40:32;;;;;;;6.10;3.30;;;7.80;57.90;;;;;;5081470;28;20302;-62
2023/04/03 11:43:21;;;;;;;7.10;3.15;;;7.80;57.60;;;;;;5077501;28;20210;-63
2023/04/03 11:46:03;;;;;;;5.87;2.70;;;7.80;57.60;;;;;;5079415;28;20214;-63
2023/04/03 11:48:58;;;;;;;8.40;3.53;;;7.80;56.60;;;;;;5079522;28;20448;-63
2023/04/03 11:51:51;;;;;;;8.57;3.95;;;7.80;57.20;;;;;;5081707;28;20216;-63
2023/04/03 11:54:50;;;;;;;12.65;5.20;;;7.90;56.70;;;;;;5080862;28;20702;-63
2023/04/03 11:57:49;;;;;;;6.32;3.60;;;7.90;56.40;;;;;;5077858;28;20717;-63
2023/04/03 12:00:58;;;;;;;9.20;4.80;;;7.90;56.40;;;;;;5079310;28;20205;-63
2023/04/03 12:04:06;;;;;;;7.20;2.80;;;7.90;56.50;;;;;;5079503;28;20217;-63
2023/04/03 12:07:17;;;;;;;6.20;3.22;;;8.00;56.20;;;;;;5081557;28;20221;-63
2023/04/03 12:10:18;;;;;;;7.25;3.13;;;7.90;56.40;;;;;;5082202;28;20263;-63
2023/04/03 12:13:04;;;;;;;7.82;3.60;;;7.80;56.10;;;;;;5075259;28;20264;-63
2023/04/03 12:15:59;;;;;;;6.82;3.40;;;7.80;56.50;;;;;;5081720;28;20276;-64
2023/04/03 12:19:02;;;;;;;10.63;3.03;;;7.90;56.30;;;;;;5078559;28;20312;-63
2023/04/03 12:22:22;;;;;;;6.50;2.80;;;7.90;56.40;;;;;;5076959;28;20242;-63
2023/04/03 12:25:01;;;;;;;7.05;3.00;;;7.90;56.20;;;;;;5061110;28;20894;-63
2023/04/03 12:27:45;;;;;;;12.67;5.20;;;7.90;56.20;;;;;;5080237;28;20237;-63
2023/04/03 12:30:27;;;;;;;5.47;2.70;;;8.00;56.40;;;;;;5079296;28;20477;-63
2023/04/03 12:33:28;;;;;;;8.45;2.97;;;8.10;56.30;;;;;;5077526;28;20273;-63
2023/04/03 12:36:09;;;;;;;4.53;2.23;;;8.00;56.20;;;;;;5079844;28;20205;-63
2023/04/03 12:39:05;;;;;;;7.03;2.43;;;8.00;56.10;;;;;;5076304;28;20538;-63
2023/04/03 12:41:54;;;;;;;5.80;2.88;;;8.00;56.20;;;;;;5081759;28;20456;-63
2023/04/03 12:44:43;;;;;;;5.88;2.50;;;8.10;56.30;;;;;;5078665;28;20684;-63
2023/04/03 12:47:29;;;;;;;5.93;3.13;;;8.10;55.50;;;;;;5079034;28;20524;-64
2023/04/03 12:50:29;;;;;;;5.97;2.80;;;8.00;55.60;;;;;;5078186;28;20456;-63
2023/04/03 12:53:05;;;;;;;8.00;3.60;;;8.10;55.70;;;;;;5079084;28;20194;-63
2023/04/03 12:55:39;;;;;;;4.70;2.47;;;8.10;55.70;;;;;;5079232;28;20436;-64
2023/04/03 12:58:25;;;;;;;9.90;2.85;;;8.20;55.90;;;;;;5079212;28;20290;-63
2023/04/03 13:01:08;;;;;;;5.50;2.33;;;8.30;55.70;;;;;;5077356;28;20227;-63
2023/04/03 13:03:53;;;;;;;5.88;2.25;;;8.20;55.70;;;;;;5076250;28;20461;-63
2023/04/03 13:06:27;;;;;;;11.23;2.88;;;8.20;55.40;;;;;;5081142;28;20217;-63
2023/04/03 13:08:59;;;;;;;4.88;2.30;;;8.20;55.20;;;;;;5077372;28;20214;-63
2023/04/03 13:11:42;;;;;;;7.53;2.67;;;8.10;55.20;;;;;;5079508;28;20210;-63
2023/04/03 13:14:25;;;;;;;4.85;2.45;;;8.10;55.20;;;;;;5078383;28;20201;-63
2023/04/03 13:17:00;;;;;;;6.95;2.75;;;8.10;55.60;;;;;;5077095;28;20249;-63
2023/04/03 13:19:32;;;;;;;5.82;2.50;;;8.20;55.50;;;;;;5079725;28;20229;-63
2023/04/03 13:22:06;;;;;;;5.20;3.00;;;8.20;55.20;;;;;;5081050;28;20809;-63
2023/04/03 13:24:46;;;;;;;5.30;2.60;;;8.20;55.00;;;;;;5084217;28;20606;-63
2023/04/03 13:27:23;;;;;;;5.00;3.03;;;8.30;55.00;;;;;;5083866;28;20464;-63
2023/04/03 13:32:46;;;;;;;5.83;3.33;;;8.40;55.20;;;;;;5079318;28;21031;-63
2023/04/03 13:35:38;;;;;;;7.83;2.40;;;8.50;54.80;;;;;;5073213;28;20471;-63
2023/04/03 13:38:31;;;;;;;5.40;2.90;;;8.50;54.60;;;;;;5085547;28;20509;-63
2023/04/03 13:41:11;;;;;;;5.67;2.20;;;8.50;54.30;;;;;;5082706;28;20986;-63
2023/04/03 13:43:47;;;;;;;5.50;2.67;;;8.50;54.30;;;;;;5081474;28;20498;-63
2023/04/03 13:46:31;;;;;;;4.50;2.00;;;8.50;54.40;;;;;;5084611;28;20479;-63
2023/04/03 13:49:21;;;;;;;5.10;2.43;;;8.50;54.20;;;;;;5083038;28;20206;-63
2023/04/03 13:51:53;;;;;;;8.13;2.77;;;8.60;53.20;;;;;;5084508;28;20559;-63
2023/04/03 13:54:39;;;;;;;5.70;3.20;;;8.60;53.20;;;;;;5083583;28;20458;-65
2023/04/03 13:57:25;;;;;;;5.87;3.07;;;8.70;53.40;;;;;;5083501;28;20485;-63
2023/04/03 13:59:57;;;;;;;8.47;3.80;;;8.70;53.40;;;;;;5079232;28;20498;-63
2023/04/03 14:02:37;;;;;;;8.87;4.40;;;8.70;53.70;;;;;;5079262;28;20807;-62
2023/04/03 14:05:09;;;;;;;7.40;3.87;;;8.70;53.50;;;;;;5082266;28;20475;-62
2023/04/03 14:07:49;;;;;;;11.27;3.73;;;8.80;53.50;;;;;;5088590;28;20563;-63
2023/04/03 14:10:22;;;;;;;7.10;4.10;;;8.90;53.50;;;;;;5084251;28;20567;-63